Norden-Norddeich Airport

EDWS · Niedersachsen, Alemania

METAR pasados EDWS · Norden-Norddeich Airport

A continuación puedes ver los METAR de los últimos días. Selecciona un año para ver los METAR más antiguos, desde el año 2007 en adelante.

20 de julio de 2024

Hora Código Tiempo Temp. Visibilidad Cielo nuboso Viento METAR/SPECI
01:20
V
18 °C 10 km+ 17.000 ft 070° 070° 3 kt METAR EDWE 192320Z AUTO 07003KT 9999 BKN170/// BKN250/// 18/17 Q1016
00:50
V
18 °C 10 km+ 25.000 ft 080° 080° 4 kt METAR EDWE 192250Z AUTO 08004KT 9999 SCT170/// BKN250/// 18/16 Q1016
00:20
V
18 °C 10 km+ 17.000 ft 070° 070° 4 kt METAR EDWE 192220Z AUTO 07004KT 9999 BKN170/// 18/17 Q1016

19 de julio de 2024

Hora Código Tiempo Temp. Visibilidad Cielo nuboso Viento METAR/SPECI
23:50
V
17 °C 10 km+ - 060° 060° 4 kt METAR EDWE 192150Z AUTO 06004KT 9999 NCD 17/16 Q1016
23:20
V
19 °C 10 km+ - Var Var 1 kt METAR EDWE 192120Z AUTO VRB01KT 9999 NCD 19/16 Q1017
22:50
V
19 °C 10 km+ - 070° 070° 2 kt METAR EDWE 192050Z AUTO 07002KT 9999 NCD 19/16 Q1016
22:20
V
19 °C 10 km+ - 060° 060° 3 kt METAR EDWE 192020Z AUTO 06003KT 9999 NCD 19/16 Q1016
21:50
V
21 °C 10 km+ - 070° 070° 5 kt METAR EDWE 191950Z AUTO 07005KT 9999 NCD 21/17 Q1016
21:20
V
22 °C 10 km+ - 060° 060° 5 kt METAR EDWE 191920Z AUTO 06005KT 9999 NCD 22/17 Q1016
20:50
V
24 °C 10 km+ - 070° 070° 4 kt METAR EDWE 191850Z AUTO 07004KT 9999 NCD 24/16 Q1017
19:50
V
24 °C 10 km+ - 140° 140° 5 kt METAR EDWE 191750Z 14005KT CAVOK 24/16 Q1017
19:20
V
25 °C 10 km+ - 140° 140° 4 kt METAR EDWE 191720Z 14004KT CAVOK 25/17 Q1017
18:20
V
26 °C 10 km+ - 110° 110° 5 kt METAR EDWE 191620Z 11005KT 080V150 CAVOK 26/15 Q1017
17:50
V
26 °C 10 km+ - 110° 110° 5 kt METAR EDWE 191550Z 11005KT 080V140 CAVOK 26/15 Q1018
17:20
V
27 °C 10 km+ - 130° 130° 5 kt METAR EDWE 191520Z 13005KT 090V170 CAVOK 27/13 Q1018
16:50
V
27 °C 10 km+ - 120° 120° 4 kt METAR EDWE 191450Z 12004KT 050V210 CAVOK 27/14 Q1018
16:20
V
27 °C 10 km+ - 090° 090° 5 kt METAR EDWE 191420Z 09005KT 040V120 CAVOK 27/14 Q1019
15:50
V
27 °C 10 km+ - 090° 090° 5 kt METAR EDWE 191350Z 09005KT 040V120 CAVOK 27/14 Q1019
15:20
V
27 °C 10 km+ - 100° 100° 5 kt METAR EDWE 191320Z 10005KT 060V190 CAVOK 27/15 Q1019
06:20
I
14 °C 4,2 km - 080° 080° 2 kt METAR EDWE 190420Z AUTO 08002KT 4200 FEW056/// 14/14 Q1021
05:50
I
14 °C 2 km 5.600 ft 040° 040° 3 kt METAR EDWE 190350Z AUTO 04003KT 2000 FEW005/// BKN056/// 14/13 Q1021
05:20
L
14 °C 350 m - 050° 050° 3 kt METAR EDWE 190320Z AUTO 05003KT 0350 R07/0650U FEW004/// SCT055/// 14/13 Q1021
04:50
L
13 °C 500 m - 080° 080° 2 kt METAR EDWE 190250Z AUTO 08002KT 0500 R07/0600D FEW004/// 13/13 Q1021
04:20
L
14 °C 450 m - 070° 070° 2 kt METAR EDWE 190220Z AUTO 07002KT 0450 R07/0900U NCD 14/13 Q1021
03:50
I
14 °C 2,5 km - 070° 070° 3 kt METAR EDWE 190150Z AUTO 07003KT 2500 NCD 14/14 Q1022
03:20
I
14 °C 3,5 km - 070° 070° 4 kt METAR EDWE 190120Z AUTO 07004KT 3500 NCD 14/13 Q1022
02:50
L
14 °C 1 km - 060° 060° 4 kt METAR EDWE 190050Z AUTO 06004KT 1000 R07/P2000N NCD 14/13 Q1022
02:20
I
14 °C 3,9 km - 060° 060° 3 kt METAR EDWE 190020Z AUTO 06003KT 3900 NCD 14/14 Q1022
01:50
M
14 °C 6 km - 060° 060° 3 kt METAR EDWE 182350Z AUTO 06003KT 6000 NCD 14/14 Q1022
01:20
V
15 °C 8 km - 070° 070° 4 kt METAR EDWE 182320Z AUTO 07004KT 8000 NCD 15/15 Q1022
00:50
M
15 °C 6 km - 060° 060° 3 kt METAR EDWE 182250Z AUTO 06003KT 6000 NCD 15/14 Q1022
00:20
V
16 °C 8 km - 070° 070° 4 kt METAR EDWE 182220Z AUTO 07004KT 8000 NCD 16/15 Q1022

18 de julio de 2024

Hora Código Tiempo Temp. Visibilidad Cielo nuboso Viento METAR/SPECI
23:50
V
16 °C 10 km+ - 060° 060° 4 kt METAR EDWE 182150Z AUTO 06004KT 9999 NCD 16/15 Q1022
23:20
V
16 °C 10 km+ - 060° 060° 4 kt METAR EDWE 182120Z AUTO 06004KT 9999 NCD 16/16 Q1022
22:50
V
16 °C 9 km - 040° 040° 4 kt METAR EDWE 182050Z AUTO 04004KT 9000 NCD 16/15 Q1022
22:20
I
16 °C 4,2 km - 030° 030° 5 kt METAR EDWE 182020Z AUTO 03005KT 4200 NCD 16/15 Q1022
21:50
V
18 °C 10 km+ - 030° 030° 5 kt METAR EDWE 181950Z AUTO 03005KT 9999 NCD 18/15 Q1022
21:20
V
18 °C 10 km+ - 020° 020° 5 kt METAR EDWE 181920Z AUTO 02005KT 9999 NCD 18/16 Q1022
20:50
V
20 °C 10 km+ - 030° 030° 6 kt METAR EDWE 181850Z AUTO 03006KT 9999 NCD 20/16 Q1022
20:20
V
21 °C 10 km+ - 040° 040° 6 kt METAR EDWE 181820Z AUTO 04006KT 9999 NCD 21/17 Q1022
19:50
V
22 °C 10 km+ - 020° 020° 7 kt METAR EDWE 181750Z AUTO 02007KT 9999 NCD 22/17 Q1022
05:50
V
15 °C 10 km+ 3.200 ft 360° 360° 0 kt METAR EDWE 180350Z AUTO 00000KT 9999 SCT013/// BKN032/// BKN240/// 15/14 Q1023
05:20
M
16 °C 10 km+ 1.400 ft Var Var 2 kt METAR EDWE 180320Z AUTO VRB02KT 9999 BKN014/// BKN025/// 16/14 Q1022
04:50
M
15 °C 10 km+ 1.500 ft Var Var 1 kt METAR EDWE 180250Z AUTO VRB01KT 9999 BKN015/// OVC022/// 15/15 Q1022
04:20
M
15 °C 10 km+ 1.500 ft Var Var 1 kt METAR EDWE 180220Z AUTO VRB01KT 9999 OVC015/// 15/14 Q1022
03:50
M
15 °C 10 km+ 1.600 ft Var Var 2 kt METAR EDWE 180150Z AUTO VRB02KT 9999 OVC016/// 15/14 Q1022
03:20
M
15 °C 10 km+ 1.500 ft Var Var 2 kt METAR EDWE 180120Z AUTO VRB02KT 9999 OVC015/// 15/14 Q1023
02:50
M
15 °C 10 km+ 1.400 ft Var Var 2 kt METAR EDWE 180050Z AUTO VRB02KT 9999 OVC014/// 15/14 Q1023
02:20
M
13 °C 9 km 1.400 ft Var Var 1 kt METAR EDWE 180020Z AUTO VRB01KT 9000 BKN014/// 13/13 Q1022
01:50
M
14 °C 10 km+ 1.400 ft Var Var 2 kt METAR EDWE 172350Z AUTO VRB02KT 9999 BKN014/// 14/14 Q1022
01:20
I
14 °C 1,6 km 1.500 ft 160° 160° 3 kt METAR EDWE 172320Z AUTO 16003KT 130V190 1600 BKN015/// 14/14 Q1022
00:50
M
13 °C 5 km - 140° 140° 3 kt METAR EDWE 172250Z AUTO 14003KT 5000 FEW015/// 13/13 Q1022
00:20
M
14 °C 10 km+ 1.500 ft Var Var 1 kt METAR EDWE 172220Z AUTO VRB01KT 9999 BKN015/// 14/13 Q1022

17 de julio de 2024

Hora Código Tiempo Temp. Visibilidad Cielo nuboso Viento METAR/SPECI
23:50
M
13 °C 6 km - 220° 220° 1 kt METAR EDWE 172150Z AUTO 22001KT 6000 NCD 13/13 Q1023
23:20
V
14 °C 8 km - 360° 360° 0 kt METAR EDWE 172120Z AUTO 00000KT 8000 NCD 14/13 Q1022
22:50
I
14 °C 3,7 km - 360° 360° 0 kt METAR EDWE 172050Z AUTO 00000KT 3700 NCD 14/13 Q1022
22:20
V
15 °C 10 km+ - Var Var 1 kt METAR EDWE 172020Z AUTO VRB01KT 9999 NCD 15/13 Q1022
21:50
V
16 °C 10 km+ - 350° 350° 2 kt METAR EDWE 171950Z AUTO 35002KT 9999 NCD 16/13 Q1022
21:20
V
16 °C 10 km+ - 330° 330° 5 kt METAR EDWE 171920Z AUTO 33005KT 9999 NCD 16/13 Q1022
20:50
V
17 °C 10 km+ - 320° 320° 6 kt METAR EDWE 171850Z AUTO 32006KT 9999 FEW017/// 17/14 Q1022
Cambiar esta información